createdAt,value
2023-03-29T00:00:39.542Z,100289.82
2023-03-29T00:03:00.644Z,100288.98
2023-03-29T00:05:15.866Z,100294.41
2023-03-29T00:07:29.125Z,100294.70
2023-03-29T00:09:43.631Z,100296.26
2023-03-29T00:11:56.853Z,100298.34
2023-03-29T00:14:10.523Z,100297.91
2023-03-29T00:16:25.536Z,100303.16
2023-03-29T00:18:39.110Z,100305.32
2023-03-29T00:21:00.127Z,100308.59
2023-03-29T00:23:13.172Z,100314.84
2023-03-29T00:25:26.016Z,100326.28
2023-03-29T00:27:38.762Z,100321.39
2023-03-29T00:29:51.929Z,100323.56
2023-03-29T00:32:04.920Z,100322.66
2023-03-29T00:34:18.593Z,100332.33
2023-03-29T00:36:32.792Z,100332.28
2023-03-29T00:38:46.602Z,100340.48
2023-03-29T00:41:01.989Z,100343.86
2023-03-29T00:43:17.868Z,100343.37
2023-03-29T00:45:33.195Z,100352.95
2023-03-29T00:47:48.927Z,100358.48
2023-03-29T00:50:07.717Z,100356.36
2023-03-29T00:52:24.050Z,100359.97
2023-03-29T00:54:39.343Z,100365.83
2023-03-29T00:56:54.905Z,100370.77
2023-03-29T00:59:13.466Z,100372.09
2023-03-29T01:01:35.091Z,100374.20
2023-03-29T01:03:55.243Z,100376.77
2023-03-29T01:06:14.309Z,100379.36
2023-03-29T01:08:32.160Z,100378.36
2023-03-29T01:10:51.077Z,100384.09
2023-03-29T01:13:10.595Z,100385.33
2023-03-29T01:15:29.711Z,100384.69
2023-03-29T01:17:44.472Z,100393.98
2023-03-29T01:20:08.921Z,100394.73
2023-03-29T01:22:33.390Z,100389.68
2023-03-29T01:24:59.213Z,100400.27
2023-03-29T01:27:19.268Z,100407.80
2023-03-29T01:29:36.750Z,100410.89
2023-03-29T01:31:54.368Z,100409.83
2023-03-29T01:34:10.924Z,100413.39
2023-03-29T01:36:30.039Z,100412.39
2023-03-29T01:38:49.655Z,100411.06
2023-03-29T01:41:04.582Z,100411.98
2023-03-29T01:43:30.521Z,100414.14
2023-03-29T01:45:49.675Z,100414.94
2023-03-29T01:48:15.818Z,100412.98
2023-03-29T01:50:37.983Z,100411.60
2023-03-29T01:52:57.531Z,100409.99
2023-03-29T01:55:15.449Z,100407.83
2023-03-29T01:57:29.706Z,100406.15
2023-03-29T01:59:48.720Z,100405.48
2023-03-29T02:02:06.107Z,100410.84
2023-03-29T02:04:22.104Z,100415.01
2023-03-29T02:06:37.321Z,100416.36
2023-03-29T02:08:51.603Z,100417.42
2023-03-29T02:11:05.537Z,100424.77
2023-03-29T02:13:20.180Z,100427.98
2023-03-29T02:15:36.845Z,100429.16
2023-03-29T02:17:52.415Z,100430.00
2023-03-29T02:20:16.285Z,100433.10
2023-03-29T02:22:36.342Z,100430.81
2023-03-29T02:24:52.106Z,100430.16
2023-03-29T02:27:06.516Z,100433.80
2023-03-29T02:29:20.141Z,100437.73
2023-03-29T02:31:38.429Z,100435.05
2023-03-29T02:33:54.573Z,100442.18
2023-03-29T02:36:11.368Z,100447.77
2023-03-29T02:38:28.818Z,100449.26
2023-03-29T02:40:43.286Z,100455.88
2023-03-29T02:42:59.430Z,100451.27
2023-03-29T02:45:16.638Z,100448.76
2023-03-29T02:47:33.581Z,100444.81
2023-03-29T02:49:47.191Z,100449.49
2023-03-29T02:52:04.785Z,100453.14
2023-03-29T02:54:21.354Z,100450.36
2023-03-29T02:56:44.374Z,100452.69
2023-03-29T02:58:57.367Z,100449.87
2023-03-29T03:01:12.400Z,100452.30
2023-03-29T03:03:26.632Z,100450.86
2023-03-29T03:05:40.989Z,100452.87
2023-03-29T03:07:53.916Z,100449.14
2023-03-29T03:10:07.918Z,100458.64
2023-03-29T03:12:24.215Z,100457.38
2023-03-29T03:14:37.821Z,100455.72
2023-03-29T03:16:52.326Z,100453.13
2023-03-29T03:19:06.540Z,100450.45
2023-03-29T03:21:21.265Z,100446.75
2023-03-29T03:23:34.813Z,100445.16
2023-03-29T03:25:50.264Z,100451.52
2023-03-29T03:28:03.638Z,100453.70
2023-03-29T03:30:22.024Z,100464.30
2023-03-29T03:32:55.905Z,100470.79
2023-03-29T03:35:33.050Z,100474.52
2023-03-29T03:37:48.162Z,100473.30
2023-03-29T03:40:05.878Z,100470.05
2023-03-29T03:42:19.997Z,100470.30
2023-03-29T03:44:36.398Z,100472.25
2023-03-29T03:47:23.404Z,100472.76
2023-03-29T03:49:37.807Z,100477.77
2023-03-29T03:51:52.745Z,100479.73
2023-03-29T03:54:06.677Z,100477.70
2023-03-29T03:56:21.591Z,100478.41
2023-03-29T03:58:50.139Z,100477.81
2023-03-29T04:01:03.198Z,100481.63
2023-03-29T04:03:22.800Z,100483.90
2023-03-29T04:05:35.496Z,100485.51
2023-03-29T04:07:48.578Z,100491.81
2023-03-29T04:10:27.306Z,100490.06
2023-03-29T04:12:51.905Z,100493.59
2023-03-29T04:15:06.194Z,100494.14
2023-03-29T04:17:21.198Z,100498.67
2023-03-29T04:19:54.047Z,100498.30
2023-03-29T04:22:06.682Z,100501.03
2023-03-29T04:24:20.507Z,100498.89
2023-03-29T04:26:48.979Z,100496.58
2023-03-29T04:29:08.594Z,100497.70
2023-03-29T04:31:33.939Z,100489.75
2023-03-29T04:34:00.249Z,100489.79
2023-03-29T04:36:14.955Z,100490.20
2023-03-29T04:38:28.249Z,100488.98
2023-03-29T04:40:41.739Z,100493.83
2023-03-29T04:43:04.222Z,100492.01
2023-03-29T04:45:19.256Z,100496.73
2023-03-29T04:47:55.508Z,100496.23
2023-03-29T04:50:09.656Z,100492.46
2023-03-29T04:52:27.530Z,100494.48
2023-03-29T04:54:41.382Z,100492.36
2023-03-29T04:57:00.106Z,100491.88
2023-03-29T04:59:40.775Z,100493.02
2023-03-29T05:02:03.972Z,100493.94
2023-03-29T05:04:19.776Z,100494.48
2023-03-29T05:06:44.949Z,100493.17
2023-03-29T05:08:58.211Z,100498.92
2023-03-29T05:11:17.774Z,100505.13
2023-03-29T05:13:30.486Z,100504.90
2023-03-29T05:15:44.614Z,100498.30
2023-03-29T05:17:58.265Z,100498.33
2023-03-29T05:20:14.623Z,100494.69
2023-03-29T05:22:31.311Z,100494.21
2023-03-29T05:24:44.414Z,100494.20
2023-03-29T05:27:02.688Z,100496.90
2023-03-29T05:29:19.011Z,100497.86
2023-03-29T05:31:38.386Z,100501.48
2023-03-29T05:33:53.062Z,100499.33
2023-03-29T05:36:12.185Z,100497.06
2023-03-29T05:38:30.886Z,100502.88
2023-03-29T05:40:44.446Z,100500.77
2023-03-29T05:43:17.059Z,100502.64
2023-03-29T05:45:31.498Z,100503.80
2023-03-29T05:47:45.802Z,100500.98
2023-03-29T05:49:58.877Z,100503.18
2023-03-29T05:52:12.790Z,100499.33
2023-03-29T05:54:26.250Z,100497.24
2023-03-29T05:56:40.410Z,100497.50
2023-03-29T05:58:58.012Z,100500.48
2023-03-29T06:01:19.173Z,100494.80
2023-03-29T06:03:43.304Z,100489.13
2023-03-29T06:06:03.450Z,100491.44
2023-03-29T06:08:18.297Z,100489.70
2023-03-29T06:10:43.925Z,100488.71
2023-03-29T06:13:08.220Z,100483.59
2023-03-29T06:15:24.314Z,100482.39
2023-03-29T06:17:46.043Z,100481.63
2023-03-29T06:19:59.383Z,100478.30
2023-03-29T06:22:14.964Z,100475.40
2023-03-29T06:24:30.757Z,100473.59
2023-03-29T06:26:51.095Z,100475.47
2023-03-29T06:29:05.462Z,100475.19
2023-03-29T06:31:18.434Z,100472.01
2023-03-29T06:33:33.375Z,100470.14
2023-03-29T06:35:58.796Z,100472.86
2023-03-29T06:38:14.761Z,100473.59
2023-03-29T06:41:04.162Z,100470.23
2023-03-29T06:43:33.979Z,100470.20
2023-03-29T06:45:57.331Z,100472.04
2023-03-29T06:48:21.285Z,100472.33
2023-03-29T06:50:43.818Z,100470.03
2023-03-29T06:53:00.772Z,100465.91
2023-03-29T06:55:17.008Z,100462.56
2023-03-29T06:57:31.896Z,100461.95
2023-03-29T06:59:45.508Z,100461.30
2023-03-29T07:02:09.940Z,100460.27
2023-03-29T07:04:33.331Z,100458.48
2023-03-29T07:07:04.662Z,100460.30
2023-03-29T07:09:22.006Z,100460.33
2023-03-29T07:12:01.074Z,100459.60
2023-03-29T07:14:14.705Z,100459.85
2023-03-29T07:16:28.470Z,100456.70
2023-03-29T07:18:56.843Z,100453.31
2023-03-29T07:21:29.888Z,100452.94
2023-03-29T07:23:43.796Z,100452.39
2023-03-29T07:25:56.809Z,100457.16
2023-03-29T07:28:12.390Z,100454.49
2023-03-29T07:30:31.481Z,100459.70
2023-03-29T07:33:00.130Z,100457.25
2023-03-29T07:35:20.608Z,100456.45
2023-03-29T07:37:54.104Z,100451.73
2023-03-29T07:40:13.438Z,100447.81
2023-03-29T07:42:48.959Z,100449.36
2023-03-29T07:45:07.206Z,100449.06
2023-03-29T07:47:27.097Z,100449.66
2023-03-29T07:49:41.300Z,100449.63
2023-03-29T07:51:55.093Z,100444.80
2023-03-29T07:54:09.366Z,100445.77
2023-03-29T07:56:25.898Z,100446.29
2023-03-29T07:58:58.467Z,100445.38
2023-03-29T08:01:18.738Z,100444.77
2023-03-29T08:03:52.044Z,100442.54
2023-03-29T08:06:08.172Z,100445.10
2023-03-29T08:08:21.806Z,100441.64
2023-03-29T08:10:40.501Z,100435.35
2023-03-29T08:12:59.245Z,100430.46
2023-03-29T08:15:22.493Z,100429.31
2023-03-29T08:17:35.952Z,100429.39
2023-03-29T08:19:51.065Z,100435.91
2023-03-29T08:22:09.673Z,100437.49
2023-03-29T08:24:42.744Z,100432.91
2023-03-29T08:26:56.802Z,100433.66
2023-03-29T08:29:11.348Z,100434.80
2023-03-29T08:31:24.654Z,100434.20
2023-03-29T08:33:37.623Z,100430.95
2023-03-29T08:36:13.258Z,100429.05
2023-03-29T08:38:29.887Z,100422.94
2023-03-29T08:40:43.787Z,100423.31
2023-03-29T08:43:44.125Z,100424.70
2023-03-29T08:46:35.292Z,100429.41
2023-03-29T08:49:13.547Z,100433.30
2023-03-29T08:51:33.085Z,100431.43
2023-03-29T08:53:50.187Z,100435.20
2023-03-29T08:56:13.851Z,100429.96
2023-03-29T08:58:37.163Z,100430.56
2023-03-29T09:00:54.849Z,100426.55
2023-03-29T09:03:12.400Z,100421.88
2023-03-29T09:05:31.143Z,100422.66
2023-03-29T09:07:59.110Z,100422.63
2023-03-29T09:10:19.868Z,100426.55
2023-03-29T09:12:46.858Z,100424.73
2023-03-29T09:15:20.560Z,100424.31
2023-03-29T09:17:51.730Z,100427.38
2023-03-29T09:20:17.014Z,100424.48
2023-03-29T09:22:36.158Z,100431.52
2023-03-29T09:25:00.712Z,100429.99
2023-03-29T09:27:18.188Z,100431.38
2023-03-29T09:29:53.471Z,100433.73
2023-03-29T09:32:18.012Z,100430.23
2023-03-29T09:34:37.982Z,100433.70
2023-03-29T09:36:57.777Z,100436.20
2023-03-29T09:39:13.022Z,100434.73
2023-03-29T09:41:33.635Z,100436.32
2023-03-29T09:43:49.543Z,100436.29
2023-03-29T09:46:10.410Z,100434.92
2023-03-29T09:48:25.102Z,100433.08
2023-03-29T09:50:43.928Z,100425.89
2023-03-29T09:52:58.354Z,100429.71
2023-03-29T09:55:19.456Z,100426.77
2023-03-29T09:57:48.476Z,100426.00
2023-03-29T10:00:06.811Z,100422.73
2023-03-29T10:02:27.478Z,100422.02
2023-03-29T10:04:43.630Z,100428.16
2023-03-29T10:06:58.439Z,100423.64
2023-03-29T10:09:23.928Z,100420.42
2023-03-29T10:11:42.703Z,100418.07
2023-03-29T10:14:00.447Z,100416.38
2023-03-29T10:16:22.167Z,100416.36
2023-03-29T10:18:36.845Z,100415.41
2023-03-29T10:20:50.297Z,100418.25
2023-03-29T10:23:04.703Z,100415.00
2023-03-29T10:25:21.989Z,100414.20
2023-03-29T10:27:37.730Z,100411.04
2023-03-29T10:29:51.332Z,100413.11
2023-03-29T10:32:05.025Z,100411.92
2023-03-29T10:34:22.077Z,100409.73
2023-03-29T10:36:37.179Z,100408.42
2023-03-29T10:38:50.098Z,100406.09
2023-03-29T10:41:12.563Z,100408.65
2023-03-29T10:43:30.712Z,100410.21
2023-03-29T10:45:46.301Z,100416.13
2023-03-29T10:48:01.368Z,100413.77
2023-03-29T10:50:21.016Z,100413.20
2023-03-29T10:52:36.239Z,100418.27
2023-03-29T10:54:51.544Z,100415.93
2023-03-29T10:57:09.260Z,100419.11
2023-03-29T10:59:42.584Z,100424.91
2023-03-29T11:02:34.114Z,100425.96
2023-03-29T11:04:53.611Z,100428.06
2023-03-29T11:07:33.701Z,100436.48
2023-03-29T11:09:56.638Z,100437.22
2023-03-29T11:12:25.383Z,100437.46
2023-03-29T11:14:47.834Z,100438.14
2023-03-29T11:17:13.733Z,100437.14
2023-03-29T11:19:50.942Z,100435.88
2023-03-29T11:22:11.924Z,100439.86
2023-03-29T11:24:51.138Z,100438.75
2023-03-29T11:27:16.156Z,100442.30
2023-03-29T11:29:34.946Z,100440.13
2023-03-29T11:31:59.158Z,100442.38
2023-03-29T11:34:24.208Z,100440.72
2023-03-29T11:36:43.586Z,100435.20
2023-03-29T11:39:05.910Z,100435.95
2023-03-29T11:41:22.016Z,100436.90
2023-03-29T11:43:40.684Z,100436.08
2023-03-29T11:45:58.269Z,100437.73
2023-03-29T11:48:17.647Z,100438.28
2023-03-29T11:50:35.329Z,100440.68
2023-03-29T11:52:53.697Z,100444.16
2023-03-29T11:55:12.940Z,100445.75
2023-03-29T11:57:33.179Z,100443.40
2023-03-29T11:59:51.854Z,100440.49
2023-03-29T12:02:16.138Z,100441.17
2023-03-29T12:04:34.534Z,100440.95
2023-03-29T12:06:55.868Z,100441.18
2023-03-29T12:09:16.625Z,100433.34
2023-03-29T12:11:37.341Z,100432.33
2023-03-29T12:13:56.946Z,100438.00
2023-03-29T12:16:19.385Z,100444.60
2023-03-29T12:18:31.856Z,100445.02
2023-03-29T12:20:50.040Z,100440.02
2023-03-29T12:23:03.893Z,100437.73
2023-03-29T12:25:24.614Z,100438.05
2023-03-29T12:27:44.839Z,100438.07
2023-03-29T12:30:34.440Z,100446.43
2023-03-29T12:33:10.150Z,100446.20
2023-03-29T12:35:55.513Z,100444.00
2023-03-29T12:38:30.966Z,100446.25
2023-03-29T12:41:05.098Z,100447.73
2023-03-29T12:43:54.179Z,100449.40
2023-03-29T12:46:12.440Z,100446.41
2023-03-29T12:48:29.148Z,100442.65
2023-03-29T12:50:47.373Z,100442.61
2023-03-29T12:53:08.570Z,100435.48
2023-03-29T12:55:37.772Z,100437.39
2023-03-29T12:58:05.036Z,100435.91
2023-03-29T13:00:32.914Z,100439.75
2023-03-29T13:02:46.821Z,100449.47
2023-03-29T13:05:02.223Z,100445.38
2023-03-29T13:07:32.026Z,100444.71
2023-03-29T13:09:54.634Z,100450.07
2023-03-29T13:12:24.836Z,100444.27
2023-03-29T13:14:43.934Z,100443.89
2023-03-29T13:17:17.544Z,100448.29
2023-03-29T13:19:39.290Z,100446.51
2023-03-29T13:22:05.997Z,100449.26
2023-03-29T13:24:36.826Z,100451.89
2023-03-29T13:27:01.060Z,100450.75
2023-03-29T13:29:44.333Z,100452.70
2023-03-29T13:32:05.098Z,100455.79
2023-03-29T13:34:33.944Z,100461.44
2023-03-29T13:36:57.799Z,100459.20
2023-03-29T13:39:18.511Z,100459.23
2023-03-29T13:41:47.452Z,100454.45
2023-03-29T13:44:02.749Z,100451.52
2023-03-29T13:46:39.385Z,100454.87
2023-03-29T13:49:07.222Z,100463.77
2023-03-29T13:51:35.813Z,100468.64
2023-03-29T13:53:56.273Z,100471.35
2023-03-29T13:56:13.508Z,100476.27
2023-03-29T13:58:37.909Z,100478.79
2023-03-29T14:00:58.327Z,100481.85
2023-03-29T14:03:16.871Z,100481.02
2023-03-29T14:05:35.624Z,100480.19
2023-03-29T14:07:53.788Z,100478.37
2023-03-29T14:10:09.128Z,100480.45
2023-03-29T14:12:23.753Z,100475.87
2023-03-29T14:14:48.299Z,100479.02
2023-03-29T14:17:10.989Z,100479.65
2023-03-29T14:19:28.587Z,100487.69
2023-03-29T14:21:43.392Z,100494.77
2023-03-29T14:24:03.929Z,100499.84
2023-03-29T14:26:22.327Z,100504.53
2023-03-29T14:28:36.885Z,100505.65
2023-03-29T14:30:53.687Z,100507.71
2023-03-29T14:33:08.164Z,100505.32
2023-03-29T14:35:24.288Z,100507.39
2023-03-29T14:37:38.430Z,100514.17
2023-03-29T14:39:52.722Z,100520.52
2023-03-29T14:42:06.939Z,100520.29
2023-03-29T14:44:22.200Z,100520.54
2023-03-29T14:46:38.449Z,100522.11
2023-03-29T14:48:52.424Z,100524.91
2023-03-29T14:51:05.368Z,100528.83
2023-03-29T14:53:23.562Z,100526.54
2023-03-29T14:55:38.506Z,100526.03
2023-03-29T14:57:53.860Z,100529.48
2023-03-29T15:00:20.215Z,100536.81
2023-03-29T15:02:34.813Z,100539.85
2023-03-29T15:04:48.455Z,100540.11
2023-03-29T15:07:07.276Z,100543.05
2023-03-29T15:09:25.531Z,100546.65
2023-03-29T15:11:40.872Z,100547.42
2023-03-29T15:14:02.660Z,100542.83
2023-03-29T15:16:19.803Z,100544.39
2023-03-29T15:18:36.006Z,100550.58
2023-03-29T15:20:49.402Z,100561.02
2023-03-29T15:23:05.708Z,100560.91
2023-03-29T15:25:22.975Z,100560.46
2023-03-29T15:27:46.016Z,100563.35
2023-03-29T15:30:05.763Z,100563.59
2023-03-29T15:32:26.924Z,100569.38
2023-03-29T15:34:40.972Z,100569.31
2023-03-29T15:36:55.090Z,100572.28
2023-03-29T15:39:08.391Z,100573.85
2023-03-29T15:41:22.784Z,100571.70
2023-03-29T15:43:35.968Z,100571.91
2023-03-29T15:45:48.890Z,100575.02
2023-03-29T15:48:05.887Z,100569.14
2023-03-29T15:50:19.626Z,100570.86
2023-03-29T15:52:32.754Z,100573.20
2023-03-29T15:54:46.990Z,100577.70
2023-03-29T15:57:04.623Z,100578.17
2023-03-29T15:59:20.393Z,100578.23
2023-03-29T16:01:40.085Z,100586.52
2023-03-29T16:03:53.704Z,100586.86
2023-03-29T16:06:06.885Z,100585.18
2023-03-29T16:08:20.493Z,100586.99
2023-03-29T16:10:34.423Z,100586.52
2023-03-29T16:12:48.368Z,100587.64
2023-03-29T16:15:01.654Z,100588.18
2023-03-29T16:17:16.962Z,100584.05
2023-03-29T16:19:30.292Z,100576.27
2023-03-29T16:21:44.148Z,100574.83
2023-03-29T16:23:56.880Z,100575.77
2023-03-29T16:26:10.535Z,100581.13
2023-03-29T16:28:23.187Z,100574.80
2023-03-29T16:30:36.081Z,100570.87
2023-03-29T16:32:48.860Z,100571.77
2023-03-29T16:35:02.350Z,100568.02
2023-03-29T16:37:15.593Z,100572.42
2023-03-29T16:39:28.774Z,100575.86
2023-03-29T16:41:43.260Z,100576.38
2023-03-29T16:43:57.461Z,100579.41
2023-03-29T16:46:12.171Z,100584.91
2023-03-29T16:48:26.061Z,100588.27
2023-03-29T16:50:39.055Z,100590.81
2023-03-29T16:52:53.533Z,100597.66
2023-03-29T16:55:07.051Z,100604.79
2023-03-29T16:57:20.185Z,100612.13
2023-03-29T16:59:33.244Z,100619.44
2023-03-29T17:01:46.540Z,100616.34
2023-03-29T17:04:01.249Z,100615.28
2023-03-29T17:06:16.052Z,100612.30
2023-03-29T17:08:29.468Z,100614.73
2023-03-29T17:10:45.831Z,100618.79
2023-03-29T17:13:00.453Z,100614.31
2023-03-29T17:15:15.081Z,100612.95
2023-03-29T17:17:28.005Z,100611.80
2023-03-29T17:19:41.105Z,100614.67
2023-03-29T17:21:53.959Z,100614.52
2023-03-29T17:24:06.959Z,100618.88
2023-03-29T17:26:19.315Z,100614.27
2023-03-29T17:28:36.011Z,100612.77
2023-03-29T17:30:51.220Z,100619.35
2023-03-29T17:33:05.543Z,100623.34
2023-03-29T17:35:19.716Z,100626.14
2023-03-29T17:37:32.898Z,100625.96
2023-03-29T17:39:47.201Z,100630.16
2023-03-29T17:42:00.814Z,100629.69
2023-03-29T17:44:15.062Z,100624.23
2023-03-29T17:46:28.460Z,100621.05
2023-03-29T17:48:42.366Z,100623.38
2023-03-29T17:50:57.851Z,100623.69
2023-03-29T17:53:11.993Z,100624.42
2023-03-29T17:55:25.183Z,100628.79
2023-03-29T17:57:38.327Z,100631.02
2023-03-29T17:59:50.962Z,100636.45
2023-03-29T18:02:06.532Z,100636.20
2023-03-29T18:04:19.331Z,100637.21
2023-03-29T18:06:33.500Z,100631.39
2023-03-29T18:08:47.536Z,100631.19
2023-03-29T18:11:08.455Z,100629.45
2023-03-29T18:13:26.465Z,100624.77
2023-03-29T18:15:40.592Z,100616.92
2023-03-29T18:17:55.456Z,100611.86
2023-03-29T18:20:12.707Z,100606.88
2023-03-29T18:22:25.900Z,100605.46
2023-03-29T18:24:39.288Z,100603.37
2023-03-29T18:26:52.251Z,100604.39
2023-03-29T18:29:06.070Z,100604.84
2023-03-29T18:31:20.807Z,100604.40
2023-03-29T18:33:36.630Z,100610.71
2023-03-29T18:35:51.613Z,100613.54
2023-03-29T18:38:04.522Z,100613.98
2023-03-29T18:40:21.341Z,100614.33
2023-03-29T18:42:34.244Z,100618.98
2023-03-29T18:44:47.327Z,100619.11
2023-03-29T18:47:00.262Z,100623.51
2023-03-29T18:49:14.205Z,100628.08
2023-03-29T18:51:27.277Z,100628.67
2023-03-29T18:53:43.069Z,100626.02
2023-03-29T18:55:55.694Z,100628.50
2023-03-29T18:58:08.379Z,100628.80
2023-03-29T19:00:21.747Z,100632.13
2023-03-29T19:02:34.831Z,100636.52
2023-03-29T19:04:47.787Z,100637.80
2023-03-29T19:07:00.886Z,100638.30
2023-03-29T19:09:13.809Z,100638.28
2023-03-29T19:11:28.772Z,100646.09
2023-03-29T19:13:42.038Z,100643.92
2023-03-29T19:15:54.819Z,100648.19
2023-03-29T19:18:07.961Z,100651.42
2023-03-29T19:20:22.239Z,100650.21
2023-03-29T19:22:36.097Z,100648.39
2023-03-29T19:24:48.811Z,100641.94
2023-03-29T19:27:01.499Z,100639.42
2023-03-29T19:29:14.352Z,100640.21
2023-03-29T19:31:28.645Z,100633.05
2023-03-29T19:33:41.838Z,100627.64
2023-03-29T19:35:55.590Z,100622.37
2023-03-29T19:38:10.235Z,100621.52
2023-03-29T19:40:24.406Z,100624.19
2023-03-29T19:42:40.580Z,100623.63
2023-03-29T19:44:53.486Z,100630.39
2023-03-29T19:47:08.190Z,100623.60
2023-03-29T19:49:22.734Z,100629.52
2023-03-29T19:51:37.397Z,100630.70
2023-03-29T19:53:51.317Z,100625.66
2023-03-29T19:56:07.502Z,100630.16
2023-03-29T19:58:20.800Z,100631.48
2023-03-29T20:00:34.900Z,100632.67
2023-03-29T20:02:48.061Z,100635.44
2023-03-29T20:05:00.837Z,100634.80
2023-03-29T20:07:14.175Z,100634.08
2023-03-29T20:09:27.294Z,100633.05
2023-03-29T20:11:41.068Z,100632.90
2023-03-29T20:13:54.934Z,100630.20
2023-03-29T20:16:09.574Z,100629.30
2023-03-29T20:18:22.761Z,100628.69
2023-03-29T20:20:36.877Z,100623.46
2023-03-29T20:22:49.683Z,100617.93
2023-03-29T20:25:02.568Z,100617.27
2023-03-29T20:27:15.079Z,100613.02
2023-03-29T20:29:28.355Z,100616.73
2023-03-29T20:31:41.426Z,100617.02
2023-03-29T20:33:56.993Z,100618.11
2023-03-29T20:36:11.487Z,100612.88
2023-03-29T20:38:24.261Z,100607.60
2023-03-29T20:40:38.401Z,100611.11
2023-03-29T20:42:51.155Z,100608.85
2023-03-29T20:45:04.361Z,100605.79
2023-03-29T20:47:17.908Z,100604.10
2023-03-29T20:49:30.525Z,100601.08
2023-03-29T20:51:44.685Z,100598.23
2023-03-29T20:54:03.413Z,100597.56
2023-03-29T20:56:17.452Z,100595.52
2023-03-29T20:58:30.318Z,100584.15
2023-03-29T21:00:43.125Z,100585.67
2023-03-29T21:02:56.355Z,100583.30
2023-03-29T21:05:09.991Z,100581.42
2023-03-29T21:07:24.145Z,100579.55
2023-03-29T21:09:38.911Z,100581.48
2023-03-29T21:11:52.821Z,100579.02
2023-03-29T21:14:10.385Z,100577.02
2023-03-29T21:16:23.499Z,100581.46
2023-03-29T21:18:36.158Z,100576.46
2023-03-29T21:20:50.728Z,100570.91
2023-03-29T21:23:03.961Z,100567.17
2023-03-29T21:25:18.600Z,100566.15
2023-03-29T21:27:31.804Z,100561.52
2023-03-29T21:29:45.159Z,100553.87
2023-03-29T21:31:58.069Z,100559.16
2023-03-29T21:34:11.048Z,100554.95
2023-03-29T21:36:23.582Z,100553.90
2023-03-29T21:38:36.801Z,100555.37
2023-03-29T21:40:49.741Z,100550.27
2023-03-29T21:43:02.668Z,100545.17
2023-03-29T21:45:17.057Z,100544.04
2023-03-29T21:47:31.476Z,100541.92
2023-03-29T21:49:45.070Z,100540.55
2023-03-29T21:51:57.758Z,100537.10
2023-03-29T21:54:11.260Z,100539.19
2023-03-29T21:56:24.214Z,100541.25
2023-03-29T21:58:37.055Z,100540.48
2023-03-29T22:00:51.774Z,100540.65
2023-03-29T22:03:05.008Z,100540.95
2023-03-29T22:05:19.293Z,100539.45
2023-03-29T22:07:32.060Z,100543.55
2023-03-29T22:09:45.506Z,100538.81
2023-03-29T22:12:00.689Z,100538.29
2023-03-29T22:14:15.348Z,100532.01
2023-03-29T22:16:32.310Z,100529.05
2023-03-29T22:18:47.989Z,100527.20
2023-03-29T22:21:01.448Z,100524.41
2023-03-29T22:23:14.433Z,100528.42
2023-03-29T22:25:28.479Z,100528.15
2023-03-29T22:27:41.436Z,100530.98
2023-03-29T22:29:55.373Z,100528.06
2023-03-29T22:32:09.524Z,100536.63
2023-03-29T22:34:22.309Z,100531.96
2023-03-29T22:36:35.965Z,100533.55
2023-03-29T22:38:50.099Z,100532.80
2023-03-29T22:41:04.561Z,100531.86
2023-03-29T22:43:19.040Z,100529.50
2023-03-29T22:45:33.736Z,100527.12
2023-03-29T22:47:47.941Z,100525.48
2023-03-29T22:50:01.320Z,100524.89
2023-03-29T22:52:15.428Z,100523.67
2023-03-29T22:54:28.000Z,100523.35
2023-03-29T22:56:42.586Z,100518.77
2023-03-29T22:58:57.292Z,100519.59
2023-03-29T23:01:11.144Z,100515.23
2023-03-29T23:03:24.444Z,100510.16
2023-03-29T23:05:38.037Z,100510.63
2023-03-29T23:07:50.703Z,100512.73
2023-03-29T23:10:04.703Z,100511.38
2023-03-29T23:12:19.389Z,100511.54
2023-03-29T23:14:34.908Z,100509.05
2023-03-29T23:16:48.887Z,100509.02
2023-03-29T23:19:02.138Z,100504.36
2023-03-29T23:21:15.867Z,100500.98
2023-03-29T23:23:29.654Z,100503.48
2023-03-29T23:25:44.795Z,100502.05
2023-03-29T23:27:58.507Z,100501.90
2023-03-29T23:30:14.418Z,100494.96
2023-03-29T23:32:29.002Z,100490.05
2023-03-29T23:34:41.778Z,100486.73
2023-03-29T23:36:55.862Z,100484.41
2023-03-29T23:39:09.092Z,100485.98
2023-03-29T23:41:24.093Z,100483.85
2023-03-29T23:43:41.715Z,100482.38
2023-03-29T23:46:02.180Z,100481.10
2023-03-29T23:48:17.580Z,100485.17
2023-03-29T23:50:31.470Z,100484.41
2023-03-29T23:52:45.197Z,100484.52
2023-03-29T23:54:59.356Z,100486.26
2023-03-29T23:57:13.504Z,100487.45
2023-03-29T23:59:30.023Z,100483.11
